Healing Springs, Alabama
Current Conditions -  °F | °C
As of 10:58 AM on Saturday 20 Dec 2014 (Local Time) from KMEI Reporting Station
Overcast Overcast  
Wind Chill: 45°   Ceiling: 2600
Heat Index: 49°   Visibility: 10mi
Dew Point: 41°   Wind: 9mph
Humidity: 74%   Direction: 20°NNE
Pressure: 30.22"   Gusts: NA
Location:  31.6272°N, 88.354°W
Report Text: KMEI 201658Z 02008KT 10SM OVC026 09/05 A3022 RMK AO2 SLP235 T00940050
Loading
Personal Weather Stations






























Interactive Weather Map New forecast layout! Learn more

10-Day Weather Forecast

Advertisements
Track Severe Weather on mobile